sensor_id;sensor_type;location;lat;lon;timestamp;P1;durP1;ratioP1;P2;durP2;ratioP2
6723;SDS011;3399;52.530;13.304;2023-02-28T00:00:06;6.20;;;3.77;;
6723;SDS011;3399;52.530;13.304;2023-02-28T00:02:35;6.30;;;4.17;;
6723;SDS011;3399;52.530;13.304;2023-02-28T00:05:01;7.47;;;4.13;;
6723;SDS011;3399;52.530;13.304;2023-02-28T00:07:28;6.77;;;4.30;;
6723;SDS011;3399;52.530;13.304;2023-02-28T00:09:54;4.97;;;4.37;;
6723;SDS011;3399;52.530;13.304;2023-02-28T00:12:20;6.17;;;3.93;;
6723;SDS011;3399;52.530;13.304;2023-02-28T00:14:46;4.83;;;3.70;;
6723;SDS011;3399;52.530;13.304;2023-02-28T00:17:11;6.60;;;3.50;;
6723;SDS011;3399;52.530;13.304;2023-02-28T00:19:37;6.57;;;4.20;;
6723;SDS011;3399;52.530;13.304;2023-02-28T00:22:02;6.20;;;4.83;;
6723;SDS011;3399;52.530;13.304;2023-02-28T00:24:28;9.10;;;3.83;;
6723;SDS011;3399;52.530;13.304;2023-02-28T00:26:53;5.07;;;4.27;;
6723;SDS011;3399;52.530;13.304;2023-02-28T00:29:18;7.30;;;5.37;;
6723;SDS011;3399;52.530;13.304;2023-02-28T00:31:44;7.73;;;4.57;;
6723;SDS011;3399;52.530;13.304;2023-02-28T00:34:09;5.40;;;3.97;;
6723;SDS011;3399;52.530;13.304;2023-02-28T00:36:35;4.47;;;3.33;;
6723;SDS011;3399;52.530;13.304;2023-02-28T00:39:00;5.97;;;4.17;;
6723;SDS011;3399;52.530;13.304;2023-02-28T00:41:26;4.40;;;3.50;;
6723;SDS011;3399;52.530;13.304;2023-02-28T00:43:51;6.40;;;4.40;;
6723;SDS011;3399;52.530;13.304;2023-02-28T00:46:17;5.53;;;3.90;;
6723;SDS011;3399;52.530;13.304;2023-02-28T00:48:42;5.10;;;3.63;;
6723;SDS011;3399;52.530;13.304;2023-02-28T00:51:08;4.53;;;4.03;;
6723;SDS011;3399;52.530;13.304;2023-02-28T00:53:34;9.87;;;3.97;;
6723;SDS011;3399;52.530;13.304;2023-02-28T00:55:59;4.50;;;3.80;;
6723;SDS011;3399;52.530;13.304;2023-02-28T00:58:25;5.27;;;4.60;;
6723;SDS011;3399;52.530;13.304;2023-02-28T01:00:51;5.07;;;3.83;;
6723;SDS011;3399;52.530;13.304;2023-02-28T01:03:19;7.43;;;3.60;;
6723;SDS011;3399;52.530;13.304;2023-02-28T01:05:45;4.97;;;3.93;;
6723;SDS011;3399;52.530;13.304;2023-02-28T01:08:11;7.07;;;4.73;;
6723;SDS011;3399;52.530;13.304;2023-02-28T01:10:37;5.93;;;3.63;;
6723;SDS011;3399;52.530;13.304;2023-02-28T01:13:03;6.13;;;3.97;;
6723;SDS011;3399;52.530;13.304;2023-02-28T01:15:29;4.67;;;3.73;;
6723;SDS011;3399;52.530;13.304;2023-02-28T01:17:56;5.93;;;3.77;;
6723;SDS011;3399;52.530;13.304;2023-02-28T01:20:22;8.33;;;3.70;;
6723;SDS011;3399;52.530;13.304;2023-02-28T01:22:47;7.67;;;4.63;;
6723;SDS011;3399;52.530;13.304;2023-02-28T01:25:13;5.37;;;3.83;;
6723;SDS011;3399;52.530;13.304;2023-02-28T01:27:39;5.57;;;3.27;;
6723;SDS011;3399;52.530;13.304;2023-02-28T01:30:05;7.60;;;4.27;;
6723;SDS011;3399;52.530;13.304;2023-02-28T01:32:31;7.03;;;3.73;;
6723;SDS011;3399;52.530;13.304;2023-02-28T01:34:57;9.37;;;4.80;;
6723;SDS011;3399;52.530;13.304;2023-02-28T01:37:23;5.43;;;4.17;;
6723;SDS011;3399;52.530;13.304;2023-02-28T01:39:48;4.23;;;3.60;;
6723;SDS011;3399;52.530;13.304;2023-02-28T01:42:14;5.87;;;4.03;;
6723;SDS011;3399;52.530;13.304;2023-02-28T01:47:34;4.83;;;4.10;;
6723;SDS011;3399;52.530;13.304;2023-02-28T01:50:04;8.23;;;4.00;;
6723;SDS011;3399;52.530;13.304;2023-02-28T01:52:32;7.60;;;4.30;;
6723;SDS011;3399;52.530;13.304;2023-02-28T01:54:59;5.93;;;3.83;;
6723;SDS011;3399;52.530;13.304;2023-02-28T01:57:29;5.97;;;4.00;;
6723;SDS011;3399;52.530;13.304;2023-02-28T02:00:04;4.57;;;4.07;;
6723;SDS011;3399;52.530;13.304;2023-02-28T02:02:33;4.33;;;3.43;;
6723;SDS011;3399;52.530;13.304;2023-02-28T02:05:04;7.33;;;4.27;;
6723;SDS011;3399;52.530;13.304;2023-02-28T02:07:32;6.67;;;3.63;;
6723;SDS011;3399;52.530;13.304;2023-02-28T02:10:05;6.70;;;3.53;;
6723;SDS011;3399;52.530;13.304;2023-02-28T02:12:35;4.00;;;3.43;;
6723;SDS011;3399;52.530;13.304;2023-02-28T02:18:19;5.27;;;3.67;;
6723;SDS011;3399;52.530;13.304;2023-02-28T02:31:51;6.47;;;3.47;;
6723;SDS011;3399;52.530;13.304;2023-02-28T02:34:35;5.57;;;3.60;;
6723;SDS011;3399;52.530;13.304;2023-02-28T02:37:12;5.80;;;3.43;;
6723;SDS011;3399;52.530;13.304;2023-02-28T02:43:13;9.40;;;4.20;;
6723;SDS011;3399;52.530;13.304;2023-02-28T02:45:54;4.57;;;4.17;;
6723;SDS011;3399;52.530;13.304;2023-02-28T02:48:25;7.87;;;3.80;;
6723;SDS011;3399;52.530;13.304;2023-02-28T02:50:54;6.10;;;3.73;;
6723;SDS011;3399;52.530;13.304;2023-02-28T02:53:24;5.73;;;3.80;;
6723;SDS011;3399;52.530;13.304;2023-02-28T02:55:57;4.93;;;3.87;;
6723;SDS011;3399;52.530;13.304;2023-02-28T02:58:26;7.33;;;3.97;;
6723;SDS011;3399;52.530;13.304;2023-02-28T03:00:56;5.10;;;4.37;;
6723;SDS011;3399;52.530;13.304;2023-02-28T03:03:24;6.63;;;4.43;;
6723;SDS011;3399;52.530;13.304;2023-02-28T03:05:56;6.83;;;4.37;;
6723;SDS011;3399;52.530;13.304;2023-02-28T03:08:24;6.60;;;3.90;;
6723;SDS011;3399;52.530;13.304;2023-02-28T03:10:55;6.90;;;5.10;;
6723;SDS011;3399;52.530;13.304;2023-02-28T03:13:32;7.57;;;5.10;;
6723;SDS011;3399;52.530;13.304;2023-02-28T03:27:41;9.33;;;4.47;;
6723;SDS011;3399;52.530;13.304;2023-02-28T03:30:38;7.40;;;3.90;;
6723;SDS011;3399;52.530;13.304;2023-02-28T03:33:17;6.17;;;4.57;;
6723;SDS011;3399;52.530;13.304;2023-02-28T03:35:53;6.20;;;4.47;;
6723;SDS011;3399;52.530;13.304;2023-02-28T03:41:13;10.30;;;5.27;;
6723;SDS011;3399;52.530;13.304;2023-02-28T03:43:56;6.63;;;5.07;;
6723;SDS011;3399;52.530;13.304;2023-02-28T03:46:27;7.23;;;4.97;;
6723;SDS011;3399;52.530;13.304;2023-02-28T03:49:05;9.10;;;4.80;;
6723;SDS011;3399;52.530;13.304;2023-02-28T03:51:49;5.17;;;3.80;;
6723;SDS011;3399;52.530;13.304;2023-02-28T03:54:19;6.50;;;5.03;;
6723;SDS011;3399;52.530;13.304;2023-02-28T03:56:51;9.60;;;5.93;;
6723;SDS011;3399;52.530;13.304;2023-02-28T03:59:26;11.37;;;6.80;;
6723;SDS011;3399;52.530;13.304;2023-02-28T04:01:53;6.27;;;5.03;;
6723;SDS011;3399;52.530;13.304;2023-02-28T04:04:20;10.33;;;5.03;;
6723;SDS011;3399;52.530;13.304;2023-02-28T04:06:45;7.40;;;4.87;;
6723;SDS011;3399;52.530;13.304;2023-02-28T04:09:14;8.80;;;5.43;;
6723;SDS011;3399;52.530;13.304;2023-02-28T04:11:41;6.10;;;4.87;;
6723;SDS011;3399;52.530;13.304;2023-02-28T04:14:09;6.50;;;4.63;;
6723;SDS011;3399;52.530;13.304;2023-02-28T04:16:36;6.27;;;4.30;;
6723;SDS011;3399;52.530;13.304;2023-02-28T04:19:05;7.80;;;4.23;;
6723;SDS011;3399;52.530;13.304;2023-02-28T04:21:32;9.63;;;4.37;;
6723;SDS011;3399;52.530;13.304;2023-02-28T04:24:10;8.40;;;4.47;;
6723;SDS011;3399;52.530;13.304;2023-02-28T04:26:39;8.97;;;5.27;;
6723;SDS011;3399;52.530;13.304;2023-02-28T04:29:08;7.73;;;5.03;;
6723;SDS011;3399;52.530;13.304;2023-02-28T04:31:34;5.43;;;4.80;;
6723;SDS011;3399;52.530;13.304;2023-02-28T04:34:00;6.67;;;4.70;;
6723;SDS011;3399;52.530;13.304;2023-02-28T04:36:26;6.67;;;4.70;;
6723;SDS011;3399;52.530;13.304;2023-02-28T04:38:52;9.77;;;5.43;;
6723;SDS011;3399;52.530;13.304;2023-02-28T04:41:17;6.00;;;5.10;;
6723;SDS011;3399;52.530;13.304;2023-02-28T04:43:43;10.57;;;5.17;;
6723;SDS011;3399;52.530;13.304;2023-02-28T04:46:09;10.90;;;5.87;;
6723;SDS011;3399;52.530;13.304;2023-02-28T04:48:36;10.00;;;6.13;;
6723;SDS011;3399;52.530;13.304;2023-02-28T04:51:03;7.60;;;5.27;;
6723;SDS011;3399;52.530;13.304;2023-02-28T04:53:31;5.10;;;4.57;;
6723;SDS011;3399;52.530;13.304;2023-02-28T04:55:57;11.13;;;5.63;;
6723;SDS011;3399;52.530;13.304;2023-02-28T04:58:23;7.37;;;5.27;;
6723;SDS011;3399;52.530;13.304;2023-02-28T05:00:49;7.30;;;5.50;;
6723;SDS011;3399;52.530;13.304;2023-02-28T05:03:15;8.37;;;5.67;;
6723;SDS011;3399;52.530;13.304;2023-02-28T05:05:41;10.57;;;4.90;;
6723;SDS011;3399;52.530;13.304;2023-02-28T05:08:06;7.33;;;5.87;;
6723;SDS011;3399;52.530;13.304;2023-02-28T05:10:32;8.77;;;5.20;;
6723;SDS011;3399;52.530;13.304;2023-02-28T05:12:57;8.67;;;5.80;;
6723;SDS011;3399;52.530;13.304;2023-02-28T05:15:23;14.17;;;6.00;;
6723;SDS011;3399;52.530;13.304;2023-02-28T05:17:49;11.70;;;6.93;;
6723;SDS011;3399;52.530;13.304;2023-02-28T05:20:15;13.90;;;6.30;;
6723;SDS011;3399;52.530;13.304;2023-02-28T05:22:40;7.97;;;5.67;;
6723;SDS011;3399;52.530;13.304;2023-02-28T05:25:08;8.03;;;5.17;;
6723;SDS011;3399;52.530;13.304;2023-02-28T05:27:37;7.77;;;5.73;;
6723;SDS011;3399;52.530;13.304;2023-02-28T05:30:02;11.47;;;6.07;;
6723;SDS011;3399;52.530;13.304;2023-02-28T05:32:29;9.63;;;6.23;;
6723;SDS011;3399;52.530;13.304;2023-02-28T05:34:54;10.20;;;5.47;;
6723;SDS011;3399;52.530;13.304;2023-02-28T05:37:20;11.50;;;6.43;;
6723;SDS011;3399;52.530;13.304;2023-02-28T05:39:45;8.47;;;5.60;;
6723;SDS011;3399;52.530;13.304;2023-02-28T05:42:11;8.30;;;5.40;;
6723;SDS011;3399;52.530;13.304;2023-02-28T05:44:36;13.07;;;6.10;;
6723;SDS011;3399;52.530;13.304;2023-02-28T05:47:02;12.33;;;5.83;;
6723;SDS011;3399;52.530;13.304;2023-02-28T05:49:28;8.23;;;6.27;;
6723;SDS011;3399;52.530;13.304;2023-02-28T05:51:53;9.50;;;6.07;;
6723;SDS011;3399;52.530;13.304;2023-02-28T05:54:19;10.03;;;6.37;;
6723;SDS011;3399;52.530;13.304;2023-02-28T05:56:45;8.27;;;6.03;;
6723;SDS011;3399;52.530;13.304;2023-02-28T05:59:11;10.73;;;7.10;;
6723;SDS011;3399;52.530;13.304;2023-02-28T06:01:38;12.40;;;6.93;;
6723;SDS011;3399;52.530;13.304;2023-02-28T06:04:07;10.03;;;6.23;;
6723;SDS011;3399;52.530;13.304;2023-02-28T06:06:33;10.60;;;6.47;;
6723;SDS011;3399;52.530;13.304;2023-02-28T06:08:59;15.03;;;9.13;;
6723;SDS011;3399;52.530;13.304;2023-02-28T06:11:25;13.73;;;7.67;;
6723;SDS011;3399;52.530;13.304;2023-02-28T06:13:58;13.97;;;7.10;;
6723;SDS011;3399;52.530;13.304;2023-02-28T06:16:26;14.07;;;8.93;;
6723;SDS011;3399;52.530;13.304;2023-02-28T06:18:52;12.80;;;7.60;;
6723;SDS011;3399;52.530;13.304;2023-02-28T06:21:20;13.30;;;6.77;;
6723;SDS011;3399;52.530;13.304;2023-02-28T06:23:46;11.33;;;7.27;;
6723;SDS011;3399;52.530;13.304;2023-02-28T06:26:12;12.43;;;6.33;;
6723;SDS011;3399;52.530;13.304;2023-02-28T06:28:37;10.53;;;7.33;;
6723;SDS011;3399;52.530;13.304;2023-02-28T06:31:07;12.33;;;7.53;;
6723;SDS011;3399;52.530;13.304;2023-02-28T06:33:36;15.07;;;7.63;;
6723;SDS011;3399;52.530;13.304;2023-02-28T06:36:03;14.93;;;7.30;;
6723;SDS011;3399;52.530;13.304;2023-02-28T06:38:30;10.97;;;7.00;;
6723;SDS011;3399;52.530;13.304;2023-02-28T06:40:56;11.50;;;7.30;;
6723;SDS011;3399;52.530;13.304;2023-02-28T06:43:23;18.27;;;8.27;;
6723;SDS011;3399;52.530;13.304;2023-02-28T06:45:49;10.80;;;6.77;;
6723;SDS011;3399;52.530;13.304;2023-02-28T06:48:15;15.03;;;7.93;;
6723;SDS011;3399;52.530;13.304;2023-02-28T06:50:41;17.37;;;10.30;;
6723;SDS011;3399;52.530;13.304;2023-02-28T06:53:07;13.30;;;9.43;;
6723;SDS011;3399;52.530;13.304;2023-02-28T06:55:32;12.93;;;8.07;;
6723;SDS011;3399;52.530;13.304;2023-02-28T06:57:58;11.73;;;8.27;;
6723;SDS011;3399;52.530;13.304;2023-02-28T07:00:25;28.40;;;18.93;;
6723;SDS011;3399;52.530;13.304;2023-02-28T07:02:50;17.93;;;11.03;;
6723;SDS011;3399;52.530;13.304;2023-02-28T07:05:16;20.07;;;10.03;;
6723;SDS011;3399;52.530;13.304;2023-02-28T07:07:41;12.53;;;8.73;;
6723;SDS011;3399;52.530;13.304;2023-02-28T07:10:12;13.93;;;9.53;;
6723;SDS011;3399;52.530;13.304;2023-02-28T07:12:39;18.03;;;10.87;;
6723;SDS011;3399;52.530;13.304;2023-02-28T07:15:05;12.23;;;8.57;;
6723;SDS011;3399;52.530;13.304;2023-02-28T07:17:31;15.00;;;8.90;;
6723;SDS011;3399;52.530;13.304;2023-02-28T07:19:56;14.50;;;8.90;;
6723;SDS011;3399;52.530;13.304;2023-02-28T07:22:22;11.30;;;7.97;;
6723;SDS011;3399;52.530;13.304;2023-02-28T07:24:47;15.60;;;8.30;;
6723;SDS011;3399;52.530;13.304;2023-02-28T07:27:13;15.60;;;9.63;;
6723;SDS011;3399;52.530;13.304;2023-02-28T07:29:48;12.83;;;8.67;;
6723;SDS011;3399;52.530;13.304;2023-02-28T07:32:14;13.70;;;9.20;;
6723;SDS011;3399;52.530;13.304;2023-02-28T07:34:40;13.17;;;8.43;;
6723;SDS011;3399;52.530;13.304;2023-02-28T07:37:05;12.20;;;8.70;;
6723;SDS011;3399;52.530;13.304;2023-02-28T07:39:31;13.70;;;8.97;;
6723;SDS011;3399;52.530;13.304;2023-02-28T07:41:56;10.63;;;8.90;;
6723;SDS011;3399;52.530;13.304;2023-02-28T07:44:22;13.73;;;9.03;;
6723;SDS011;3399;52.530;13.304;2023-02-28T07:46:47;10.23;;;7.53;;
6723;SDS011;3399;52.530;13.304;2023-02-28T07:49:13;14.90;;;9.73;;
6723;SDS011;3399;52.530;13.304;2023-02-28T07:51:38;13.47;;;8.43;;
6723;SDS011;3399;52.530;13.304;2023-02-28T07:54:04;14.10;;;9.00;;
6723;SDS011;3399;52.530;13.304;2023-02-28T07:56:29;10.60;;;8.97;;
6723;SDS011;3399;52.530;13.304;2023-02-28T07:58:55;13.47;;;9.13;;
6723;SDS011;3399;52.530;13.304;2023-02-28T08:01:21;10.53;;;8.83;;
6723;SDS011;3399;52.530;13.304;2023-02-28T08:03:46;15.23;;;8.27;;
6723;SDS011;3399;52.530;13.304;2023-02-28T08:06:19;22.57;;;9.80;;
6723;SDS011;3399;52.530;13.304;2023-02-28T08:08:46;12.43;;;8.43;;
6723;SDS011;3399;52.530;13.304;2023-02-28T08:11:11;19.80;;;9.40;;
6723;SDS011;3399;52.530;13.304;2023-02-28T08:13:37;21.47;;;9.23;;
6723;SDS011;3399;52.530;13.304;2023-02-28T08:16:02;10.93;;;7.90;;
6723;SDS011;3399;52.530;13.304;2023-02-28T08:18:28;12.00;;;7.70;;
6723;SDS011;3399;52.530;13.304;2023-02-28T08:20:54;10.77;;;7.37;;
6723;SDS011;3399;52.530;13.304;2023-02-28T08:23:19;9.90;;;6.67;;
6723;SDS011;3399;52.530;13.304;2023-02-28T08:25:45;13.67;;;7.10;;
6723;SDS011;3399;52.530;13.304;2023-02-28T08:28:18;9.97;;;5.73;;
6723;SDS011;3399;52.530;13.304;2023-02-28T08:30:43;15.53;;;8.67;;
6723;SDS011;3399;52.530;13.304;2023-02-28T08:33:09;10.53;;;4.80;;
6723;SDS011;3399;52.530;13.304;2023-02-28T08:35:35;7.87;;;3.97;;
6723;SDS011;3399;52.530;13.304;2023-02-28T08:38:01;10.40;;;4.80;;
6723;SDS011;3399;52.530;13.304;2023-02-28T08:40:27;3.27;;;2.53;;
6723;SDS011;3399;52.530;13.304;2023-02-28T08:42:52;5.93;;;2.93;;
6723;SDS011;3399;52.530;13.304;2023-02-28T08:45:18;5.13;;;2.73;;
6723;SDS011;3399;52.530;13.304;2023-02-28T08:47:43;3.03;;;2.33;;
6723;SDS011;3399;52.530;13.304;2023-02-28T08:50:09;3.60;;;2.30;;
6723;SDS011;3399;52.530;13.304;2023-02-28T08:52:34;3.70;;;2.47;;
6723;SDS011;3399;52.530;13.304;2023-02-28T08:55:00;6.43;;;3.27;;
6723;SDS011;3399;52.530;13.304;2023-02-28T08:57:25;4.47;;;3.40;;
6723;SDS011;3399;52.530;13.304;2023-02-28T08:59:52;6.37;;;2.93;;
6723;SDS011;3399;52.530;13.304;2023-02-28T09:02:17;3.87;;;3.37;;
6723;SDS011;3399;52.530;13.304;2023-02-28T09:04:43;4.83;;;2.80;;
6723;SDS011;3399;52.530;13.304;2023-02-28T09:07:10;4.20;;;2.67;;
6723;SDS011;3399;52.530;13.304;2023-02-28T09:09:36;5.07;;;3.07;;
6723;SDS011;3399;52.530;13.304;2023-02-28T09:12:02;2.30;;;2.10;;
6723;SDS011;3399;52.530;13.304;2023-02-28T09:14:28;3.40;;;2.77;;
6723;SDS011;3399;52.530;13.304;2023-02-28T09:16:54;6.67;;;2.77;;
6723;SDS011;3399;52.530;13.304;2023-02-28T09:19:19;5.33;;;1.90;;
6723;SDS011;3399;52.530;13.304;2023-02-28T09:21:45;4.90;;;2.20;;
6723;SDS011;3399;52.530;13.304;2023-02-28T09:24:10;17.00;;;8.17;;
6723;SDS011;3399;52.530;13.304;2023-02-28T09:26:39;6.40;;;3.20;;
6723;SDS011;3399;52.530;13.304;2023-02-28T09:29:05;4.33;;;2.50;;
6723;SDS011;3399;52.530;13.304;2023-02-28T09:31:31;3.07;;;2.23;;
6723;SDS011;3399;52.530;13.304;2023-02-28T09:33:57;3.53;;;2.03;;
6723;SDS011;3399;52.530;13.304;2023-02-28T09:36:24;8.90;;;4.43;;
6723;SDS011;3399;52.530;13.304;2023-02-28T09:38:51;3.07;;;1.67;;
6723;SDS011;3399;52.530;13.304;2023-02-28T09:41:22;2.00;;;1.80;;
6723;SDS011;3399;52.530;13.304;2023-02-28T09:43:51;4.20;;;2.43;;
6723;SDS011;3399;52.530;13.304;2023-02-28T09:46:31;5.37;;;2.40;;
6723;SDS011;3399;52.530;13.304;2023-02-28T09:49:02;5.80;;;2.50;;
6723;SDS011;3399;52.530;13.304;2023-02-28T09:51:40;5.83;;;2.77;;
6723;SDS011;3399;52.530;13.304;2023-02-28T09:54:30;3.30;;;1.80;;
6723;SDS011;3399;52.530;13.304;2023-02-28T09:59:39;5.13;;;2.27;;
6723;SDS011;3399;52.530;13.304;2023-02-28T10:02:24;5.33;;;2.70;;
6723;SDS011;3399;52.530;13.304;2023-02-28T10:10:35;4.47;;;2.37;;
6723;SDS011;3399;52.530;13.304;2023-02-28T10:13:11;3.20;;;2.10;;
6723;SDS011;3399;52.530;13.304;2023-02-28T10:15:45;3.80;;;1.83;;
6723;SDS011;3399;52.530;13.304;2023-02-28T10:18:14;2.37;;;2.17;;
6723;SDS011;3399;52.530;13.304;2023-02-28T10:20:45;3.20;;;2.77;;
6723;SDS011;3399;52.530;13.304;2023-02-28T10:25:45;2.40;;;2.17;;
6723;SDS011;3399;52.530;13.304;2023-02-28T10:28:25;2.40;;;2.10;;
6723;SDS011;3399;52.530;13.304;2023-02-28T10:30:53;3.57;;;2.43;;
6723;SDS011;3399;52.530;13.304;2023-02-28T10:35:55;3.10;;;2.20;;
6723;SDS011;3399;52.530;13.304;2023-02-28T10:38:25;5.20;;;2.60;;
6723;SDS011;3399;52.530;13.304;2023-02-28T10:43:31;3.30;;;2.20;;
6723;SDS011;3399;52.530;13.304;2023-02-28T10:46:01;2.83;;;2.43;;
6723;SDS011;3399;52.530;13.304;2023-02-28T10:48:37;2.03;;;1.57;;
6723;SDS011;3399;52.530;13.304;2023-02-28T10:51:10;2.33;;;1.73;;
6723;SDS011;3399;52.530;13.304;2023-02-28T10:53:38;2.47;;;2.27;;
6723;SDS011;3399;52.530;13.304;2023-02-28T10:56:21;2.43;;;1.90;;
6723;SDS011;3399;52.530;13.304;2023-02-28T11:06:57;3.33;;;2.70;;
6723;SDS011;3399;52.530;13.304;2023-02-28T11:09:32;5.47;;;2.63;;
6723;SDS011;3399;52.530;13.304;2023-02-28T11:12:00;3.27;;;1.67;;
6723;SDS011;3399;52.530;13.304;2023-02-28T11:14:28;5.00;;;1.83;;
6723;SDS011;3399;52.530;13.304;2023-02-28T11:16:57;2.47;;;1.97;;
6723;SDS011;3399;52.530;13.304;2023-02-28T11:19:28;3.27;;;2.13;;
6723;SDS011;3399;52.530;13.304;2023-02-28T11:22:02;4.27;;;2.00;;
6723;SDS011;3399;52.530;13.304;2023-02-28T11:24:31;1.57;;;1.47;;
6723;SDS011;3399;52.530;13.304;2023-02-28T11:27:00;4.83;;;2.27;;
6723;SDS011;3399;52.530;13.304;2023-02-28T11:29:27;4.83;;;2.00;;
6723;SDS011;3399;52.530;13.304;2023-02-28T11:34:47;2.37;;;1.60;;
6723;SDS011;3399;52.530;13.304;2023-02-28T11:37:27;5.37;;;2.47;;
6723;SDS011;3399;52.530;13.304;2023-02-28T11:39:54;4.73;;;2.30;;
6723;SDS011;3399;52.530;13.304;2023-02-28T11:42:27;3.33;;;1.97;;
6723;SDS011;3399;52.530;13.304;2023-02-28T11:45:15;3.57;;;2.80;;
6723;SDS011;3399;52.530;13.304;2023-02-28T11:47:55;5.00;;;2.40;;
6723;SDS011;3399;52.530;13.304;2023-02-28T11:55:49;2.47;;;2.10;;
6723;SDS011;3399;52.530;13.304;2023-02-28T11:58:25;4.90;;;2.23;;
6723;SDS011;3399;52.530;13.304;2023-02-28T12:03:59;4.83;;;2.23;;
6723;SDS011;3399;52.530;13.304;2023-02-28T12:11:56;3.57;;;2.27;;
6723;SDS011;3399;52.530;13.304;2023-02-28T12:14:39;3.53;;;2.23;;
6723;SDS011;3399;52.530;13.304;2023-02-28T12:17:37;2.53;;;2.33;;
6723;SDS011;3399;52.530;13.304;2023-02-28T12:20:21;5.00;;;2.33;;
6723;SDS011;3399;52.530;13.304;2023-02-28T12:28:49;3.70;;;2.40;;
6723;SDS011;3399;52.530;13.304;2023-02-28T12:31:26;2.57;;;2.40;;
6723;SDS011;3399;52.530;13.304;2023-02-28T12:34:01;3.97;;;2.83;;
6723;SDS011;3399;52.530;13.304;2023-02-28T12:36:31;2.97;;;2.53;;
6723;SDS011;3399;52.530;13.304;2023-02-28T12:39:46;6.07;;;3.53;;
6723;SDS011;3399;52.530;13.304;2023-02-28T12:42:17;3.03;;;2.73;;
6723;SDS011;3399;52.530;13.304;2023-02-28T12:44:51;4.17;;;2.93;;
6723;SDS011;3399;52.530;13.304;2023-02-28T12:47:21;3.90;;;2.80;;
6723;SDS011;3399;52.530;13.304;2023-02-28T12:49:49;2.63;;;2.43;;
6723;SDS011;3399;52.530;13.304;2023-02-28T12:52:41;3.47;;;2.97;;
6723;SDS011;3399;52.530;13.304;2023-02-28T12:55:19;4.73;;;2.27;;
6723;SDS011;3399;52.530;13.304;2023-02-28T12:58:08;4.50;;;2.80;;
6723;SDS011;3399;52.530;13.304;2023-02-28T13:00:49;2.87;;;2.57;;
6723;SDS011;3399;52.530;13.304;2023-02-28T13:03:24;4.00;;;2.33;;
6723;SDS011;3399;52.530;13.304;2023-02-28T13:06:23;4.70;;;2.90;;
6723;SDS011;3399;52.530;13.304;2023-02-28T13:09:09;4.53;;;2.67;;
6723;SDS011;3399;52.530;13.304;2023-02-28T13:14:16;2.97;;;2.67;;
6723;SDS011;3399;52.530;13.304;2023-02-28T13:19:41;4.77;;;2.27;;
6723;SDS011;3399;52.530;13.304;2023-02-28T13:22:18;3.17;;;2.87;;
6723;SDS011;3399;52.530;13.304;2023-02-28T13:24:47;3.63;;;2.63;;
6723;SDS011;3399;52.530;13.304;2023-02-28T13:29:52;4.00;;;2.53;;
6723;SDS011;3399;52.530;13.304;2023-02-28T13:32:19;5.47;;;2.70;;
6723;SDS011;3399;52.530;13.304;2023-02-28T13:39:54;3.27;;;2.57;;
6723;SDS011;3399;52.530;13.304;2023-02-28T13:47:28;4.33;;;3.20;;
6723;SDS011;3399;52.530;13.304;2023-02-28T13:53:01;5.03;;;2.93;;
6723;SDS011;3399;52.530;13.304;2023-02-28T13:55:42;4.77;;;3.17;;
6723;SDS011;3399;52.530;13.304;2023-02-28T13:58:22;3.23;;;2.87;;
6723;SDS011;3399;52.530;13.304;2023-02-28T14:07:00;3.67;;;3.03;;
6723;SDS011;3399;52.530;13.304;2023-02-28T14:09:28;3.10;;;2.70;;
6723;SDS011;3399;52.530;13.304;2023-02-28T14:15:25;3.87;;;3.43;;
6723;SDS011;3399;52.530;13.304;2023-02-28T14:17:58;3.27;;;2.97;;
6723;SDS011;3399;52.530;13.304;2023-02-28T14:20:27;3.17;;;2.87;;
6723;SDS011;3399;52.530;13.304;2023-02-28T14:23:03;3.40;;;2.80;;
6723;SDS011;3399;52.530;13.304;2023-02-28T14:25:38;4.17;;;3.23;;
6723;SDS011;3399;52.530;13.304;2023-02-28T14:28:43;6.27;;;4.23;;
6723;SDS011;3399;52.530;13.304;2023-02-28T14:31:23;4.63;;;2.93;;
6723;SDS011;3399;52.530;13.304;2023-02-28T14:34:00;4.03;;;3.67;;
6723;SDS011;3399;52.530;13.304;2023-02-28T14:36:43;4.43;;;3.47;;
6723;SDS011;3399;52.530;13.304;2023-02-28T14:39:11;2.67;;;2.47;;
6723;SDS011;3399;52.530;13.304;2023-02-28T14:41:43;5.30;;;3.87;;
6723;SDS011;3399;52.530;13.304;2023-02-28T14:44:20;3.77;;;2.80;;
6723;SDS011;3399;52.530;13.304;2023-02-28T14:47:02;11.10;;;6.60;;
6723;SDS011;3399;52.530;13.304;2023-02-28T14:49:32;6.17;;;4.27;;
6723;SDS011;3399;52.530;13.304;2023-02-28T14:52:23;3.07;;;2.53;;
6723;SDS011;3399;52.530;13.304;2023-02-28T14:54:52;4.17;;;3.07;;
6723;SDS011;3399;52.530;13.304;2023-02-28T14:57:27;4.97;;;2.60;;
6723;SDS011;3399;52.530;13.304;2023-02-28T15:00:10;5.33;;;2.63;;
6723;SDS011;3399;52.530;13.304;2023-02-28T15:02:38;4.73;;;3.27;;
6723;SDS011;3399;52.530;13.304;2023-02-28T15:05:19;5.73;;;3.13;;
6723;SDS011;3399;52.530;13.304;2023-02-28T15:08:05;4.07;;;2.77;;
6723;SDS011;3399;52.530;13.304;2023-02-28T15:10:40;4.97;;;2.67;;
6723;SDS011;3399;52.530;13.304;2023-02-28T15:13:11;4.17;;;2.63;;
6723;SDS011;3399;52.530;13.304;2023-02-28T15:15:41;2.87;;;2.60;;
6723;SDS011;3399;52.530;13.304;2023-02-28T15:20:48;4.63;;;2.40;;
6723;SDS011;3399;52.530;13.304;2023-02-28T15:23:15;3.77;;;2.93;;
6723;SDS011;3399;52.530;13.304;2023-02-28T15:25:41;3.57;;;2.53;;
6723;SDS011;3399;52.530;13.304;2023-02-28T15:28:12;3.10;;;2.60;;
6723;SDS011;3399;52.530;13.304;2023-02-28T15:30:50;3.77;;;3.00;;
6723;SDS011;3399;52.530;13.304;2023-02-28T15:33:20;3.17;;;2.70;;
6723;SDS011;3399;52.530;13.304;2023-02-28T15:35:47;4.50;;;2.63;;
6723;SDS011;3399;52.530;13.304;2023-02-28T15:38:18;3.67;;;2.63;;
6723;SDS011;3399;52.530;13.304;2023-02-28T15:40:52;3.97;;;2.60;;
6723;SDS011;3399;52.530;13.304;2023-02-28T15:43:26;2.93;;;2.63;;
6723;SDS011;3399;52.530;13.304;2023-02-28T15:45:55;3.83;;;2.67;;
6723;SDS011;3399;52.530;13.304;2023-02-28T15:48:27;4.37;;;2.77;;
6723;SDS011;3399;52.530;13.304;2023-02-28T15:51:09;3.57;;;2.93;;
6723;SDS011;3399;52.530;13.304;2023-02-28T15:54:07;4.97;;;3.20;;
6723;SDS011;3399;52.530;13.304;2023-02-28T15:56:44;5.97;;;3.00;;
6723;SDS011;3399;52.530;13.304;2023-02-28T15:59:15;4.97;;;3.23;;
6723;SDS011;3399;52.530;13.304;2023-02-28T16:01:44;5.27;;;3.00;;
6723;SDS011;3399;52.530;13.304;2023-02-28T16:06:41;5.20;;;3.73;;
6723;SDS011;3399;52.530;13.304;2023-02-28T16:09:11;4.40;;;3.00;;
6723;SDS011;3399;52.530;13.304;2023-02-28T16:11:45;3.97;;;3.07;;
6723;SDS011;3399;52.530;13.304;2023-02-28T16:14:17;4.40;;;2.80;;
6723;SDS011;3399;52.530;13.304;2023-02-28T16:16:46;4.50;;;3.10;;
6723;SDS011;3399;52.530;13.304;2023-02-28T16:19:13;5.57;;;2.97;;
6723;SDS011;3399;52.530;13.304;2023-02-28T16:21:40;5.13;;;2.80;;
6723;SDS011;3399;52.530;13.304;2023-02-28T16:24:05;3.27;;;2.97;;
6723;SDS011;3399;52.530;13.304;2023-02-28T16:26:31;4.63;;;3.97;;
6723;SDS011;3399;52.530;13.304;2023-02-28T16:28:59;3.83;;;2.77;;
6723;SDS011;3399;52.530;13.304;2023-02-28T16:31:25;4.30;;;2.90;;
6723;SDS011;3399;52.530;13.304;2023-02-28T16:33:51;3.63;;;3.17;;
6723;SDS011;3399;52.530;13.304;2023-02-28T16:36:18;4.20;;;3.23;;
6723;SDS011;3399;52.530;13.304;2023-02-28T16:38:45;4.00;;;3.20;;
6723;SDS011;3399;52.530;13.304;2023-02-28T16:41:20;3.80;;;3.20;;
6723;SDS011;3399;52.530;13.304;2023-02-28T16:43:49;4.97;;;3.63;;
6723;SDS011;3399;52.530;13.304;2023-02-28T16:46:17;4.87;;;3.13;;
6723;SDS011;3399;52.530;13.304;2023-02-28T16:48:44;4.33;;;3.03;;
6723;SDS011;3399;52.530;13.304;2023-02-28T16:51:11;4.17;;;3.10;;
6723;SDS011;3399;52.530;13.304;2023-02-28T16:53:38;3.80;;;3.13;;
6723;SDS011;3399;52.530;13.304;2023-02-28T16:56:03;6.50;;;3.80;;
6723;SDS011;3399;52.530;13.304;2023-02-28T16:58:31;8.50;;;4.80;;
6723;SDS011;3399;52.530;13.304;2023-02-28T17:01:00;7.33;;;4.80;;
6723;SDS011;3399;52.530;13.304;2023-02-28T17:03:26;10.57;;;5.10;;
6723;SDS011;3399;52.530;13.304;2023-02-28T17:05:52;5.97;;;3.90;;
6723;SDS011;3399;52.530;13.304;2023-02-28T17:08:18;8.40;;;4.00;;
6723;SDS011;3399;52.530;13.304;2023-02-28T17:10:44;9.40;;;4.80;;